createdAt,value
2023-03-23T15:58:56.216Z,97382.22
2023-03-23T16:01:28.742Z,97401.47
2023-03-23T16:04:07.998Z,97393.63
2023-03-23T16:06:37.443Z,97406.84
2023-03-23T16:09:06.818Z,97415.56
2023-03-23T16:11:35.113Z,97415.72
2023-03-23T16:14:05.431Z,97411.25
2023-03-23T16:16:43.561Z,97406.00
2023-03-23T16:19:15.771Z,97410.06
2023-03-23T16:21:43.201Z,97415.09
2023-03-23T16:24:11.964Z,97423.09
2023-03-23T16:26:41.114Z,97430.56
2023-03-23T16:29:24.500Z,97431.19
2023-03-23T16:31:56.703Z,97436.22
2023-03-23T16:34:33.353Z,97450.09
2023-03-23T16:37:01.802Z,97436.09
2023-03-23T16:39:30.756Z,97428.69
2023-03-23T16:41:57.798Z,97425.28
2023-03-23T16:44:25.048Z,97429.72
2023-03-23T16:46:52.399Z,97430.91
2023-03-23T16:49:20.088Z,97426.34
2023-03-23T16:51:48.727Z,97436.78
2023-03-23T16:54:20.721Z,97444.22
2023-03-23T16:56:49.373Z,97446.19
2023-03-23T16:59:17.869Z,97438.69
2023-03-23T17:01:45.814Z,97440.47
2023-03-23T17:04:15.972Z,97443.63
2023-03-23T17:06:45.092Z,97446.28
2023-03-23T17:09:12.356Z,97432.44
2023-03-23T17:11:39.842Z,97441.31
2023-03-23T17:14:06.956Z,97440.38
2023-03-23T17:16:40.993Z,97446.56
2023-03-23T17:19:10.050Z,97433.28
2023-03-23T17:21:41.862Z,97430.16
2023-03-23T17:24:10.546Z,97441.06
2023-03-23T17:26:37.370Z,97438.00
2023-03-23T17:29:05.331Z,97434.50
2023-03-23T17:31:34.381Z,97431.78
2023-03-23T17:34:02.362Z,97439.84
2023-03-23T17:36:29.922Z,97442.53
2023-03-23T17:38:56.888Z,97444.41
2023-03-23T17:41:23.927Z,97452.34
2023-03-23T17:43:51.109Z,97452.91
2023-03-23T17:46:18.705Z,97451.72
2023-03-23T17:48:45.814Z,97463.91
2023-03-23T17:51:12.676Z,97467.16
2023-03-23T17:53:39.676Z,97467.28
2023-03-23T17:56:07.044Z,97470.72
2023-03-23T17:58:36.773Z,97474.72
2023-03-23T18:01:04.440Z,97479.44
2023-03-23T18:03:32.739Z,97480.09
2023-03-23T18:06:05.735Z,97477.66
2023-03-23T18:08:38.409Z,97479.53
2023-03-23T18:11:13.770Z,97491.38
2023-03-23T18:13:41.673Z,97480.72
2023-03-23T18:16:09.447Z,97486.56
2023-03-23T18:18:36.463Z,97488.88
2023-03-23T18:21:08.922Z,97490.16
2023-03-23T18:23:46.036Z,97491.94
2023-03-23T18:26:18.036Z,97495.50
2023-03-23T18:28:48.276Z,97500.69
2023-03-23T18:31:18.793Z,97498.75
2023-03-23T18:33:51.632Z,97493.78
2023-03-23T18:36:25.679Z,97495.25
2023-03-23T18:38:56.686Z,97491.94
2023-03-23T18:41:24.332Z,97495.72
2023-03-23T18:43:51.426Z,97496.25
2023-03-23T18:46:19.182Z,97502.28
2023-03-23T18:48:46.322Z,97505.94
2023-03-23T18:51:14.177Z,97499.56
2023-03-23T18:53:43.217Z,97499.03
2023-03-23T18:56:16.780Z,97500.25
2023-03-23T18:58:45.053Z,97505.50
2023-03-23T19:01:15.798Z,97508.00
2023-03-23T19:03:45.701Z,97499.16
2023-03-23T19:06:22.534Z,97498.25
2023-03-23T19:08:50.365Z,97494.88
2023-03-23T19:11:17.402Z,97496.84
2023-03-23T19:13:53.799Z,97494.66
2023-03-23T19:16:25.768Z,97502.06
2023-03-23T19:18:52.769Z,97507.59
2023-03-23T19:21:24.943Z,97504.59
2023-03-23T19:23:53.429Z,97506.59
2023-03-23T19:26:28.646Z,97512.41
2023-03-23T19:31:26.004Z,97499.84
2023-03-23T19:33:53.767Z,97501.34
2023-03-23T19:36:23.089Z,97491.19
2023-03-23T19:38:50.858Z,97492.09
2023-03-23T19:41:19.305Z,97486.72
2023-03-23T19:43:46.940Z,97490.88
2023-03-23T19:46:31.680Z,97490.16
2023-03-23T19:48:59.973Z,97481.09
2023-03-23T19:51:28.565Z,97478.59
2023-03-23T19:53:57.686Z,97482.06
2023-03-23T19:56:25.538Z,97479.78
2023-03-23T19:58:55.964Z,97484.56
2023-03-23T20:01:23.134Z,97477.34
2023-03-23T20:03:50.754Z,97478.81
2023-03-23T20:06:18.394Z,97484.00
2023-03-23T20:08:47.696Z,97483.88
2023-03-23T20:11:19.108Z,97485.94
2023-03-23T20:13:48.431Z,97486.16
2023-03-23T20:16:16.711Z,97490.41
2023-03-23T20:18:44.823Z,97496.22
2023-03-23T20:21:22.382Z,97485.06
2023-03-23T20:23:52.457Z,97485.59
2023-03-23T20:26:24.398Z,97481.44
2023-03-23T20:28:52.353Z,97485.16
2023-03-23T20:31:31.416Z,97478.03
2023-03-23T20:34:03.987Z,97479.13
2023-03-23T20:36:35.819Z,97478.97
2023-03-23T20:39:05.981Z,97476.28
2023-03-23T20:41:36.146Z,97480.53
2023-03-23T20:44:04.847Z,97468.34
2023-03-23T20:46:32.840Z,97476.72
2023-03-23T20:49:01.328Z,97476.47
2023-03-23T20:51:28.561Z,97473.94
2023-03-23T20:53:55.687Z,97462.47
2023-03-23T20:56:24.605Z,97459.75
2023-03-23T20:58:52.008Z,97460.66
2023-03-23T21:01:21.689Z,97460.84
2023-03-23T21:03:52.692Z,97455.13
2023-03-23T21:06:21.611Z,97445.75
2023-03-23T21:08:49.317Z,97444.47
2023-03-23T21:11:18.993Z,97447.72
2023-03-23T21:13:46.939Z,97445.03
2023-03-23T21:16:14.475Z,97447.94
2023-03-23T21:18:45.780Z,97445.41
2023-03-23T21:21:15.003Z,97440.13
2023-03-23T21:23:46.694Z,97444.84
2023-03-23T21:26:17.213Z,97446.88
2023-03-23T21:28:45.689Z,97445.13
2023-03-23T21:31:17.270Z,97439.28
2023-03-23T21:33:46.432Z,97434.88
2023-03-23T21:36:13.334Z,97437.81
2023-03-23T21:38:40.676Z,97437.47
2023-03-23T21:41:13.145Z,97437.19
2023-03-23T21:43:41.167Z,97431.06
2023-03-23T21:46:09.720Z,97432.03
2023-03-23T21:48:38.838Z,97419.34
2023-03-23T21:51:15.760Z,97430.31
2023-03-23T21:53:47.084Z,97422.19
2023-03-23T21:56:14.750Z,97425.59
2023-03-23T21:58:42.839Z,97424.63
2023-03-23T22:01:10.998Z,97429.69
2023-03-23T22:03:39.026Z,97426.28
2023-03-23T22:06:17.164Z,97421.06
2023-03-23T22:08:45.535Z,97429.03
2023-03-23T22:11:18.481Z,97427.19
2023-03-23T22:13:45.606Z,97424.34
2023-03-23T22:16:14.875Z,97413.16
2023-03-23T22:18:43.385Z,97419.25
2023-03-23T22:21:12.711Z,97417.59
2023-03-23T22:23:40.436Z,97415.00
2023-03-23T22:26:08.227Z,97411.47
2023-03-23T22:28:37.311Z,97413.91
2023-03-23T22:31:07.217Z,97412.84
2023-03-23T22:33:36.005Z,97409.81
2023-03-23T22:36:06.292Z,97409.44
2023-03-23T22:38:35.649Z,97409.16
2023-03-23T22:41:07.009Z,97414.56
2023-03-23T22:43:35.997Z,97406.03
2023-03-23T22:46:04.700Z,97404.34
2023-03-23T22:48:32.520Z,97401.50
2023-03-23T22:50:59.653Z,97395.19
2023-03-23T22:53:27.222Z,97387.50
2023-03-23T22:55:56.771Z,97390.72
2023-03-23T22:58:26.101Z,97387.56
2023-03-23T23:00:59.605Z,97388.47
2023-03-23T23:03:27.415Z,97385.97
2023-03-23T23:05:56.308Z,97393.09
2023-03-23T23:08:24.799Z,97399.41
2023-03-23T23:10:53.504Z,97401.13
2023-03-23T23:13:26.511Z,97393.34
2023-03-23T23:15:54.697Z,97394.72
2023-03-23T23:18:21.685Z,97397.72
2023-03-23T23:20:51.471Z,97394.94
2023-03-23T23:23:18.297Z,97385.75
2023-03-23T23:25:46.010Z,97387.69
2023-03-23T23:28:13.478Z,97386.34
2023-03-23T23:30:41.071Z,97376.81
2023-03-23T23:33:09.401Z,97376.13
2023-03-23T23:35:40.856Z,97374.28
2023-03-23T23:38:12.975Z,97372.84
2023-03-23T23:40:42.885Z,97368.56
2023-03-23T23:43:12.101Z,97360.00
2023-03-23T23:45:39.425Z,97364.28
2023-03-23T23:48:07.388Z,97361.13
2023-03-23T23:50:34.721Z,97362.44
2023-03-23T23:53:01.690Z,97360.84
2023-03-23T23:55:28.721Z,97354.28
2023-03-23T23:57:57.642Z,97357.22
